createdAt,value
2018-02-17T00:01:53.388Z,95.58
2018-02-17T00:04:20.997Z,95.40
2018-02-17T00:06:48.751Z,95.33
2018-02-17T00:09:17.016Z,95.44
2018-02-17T00:11:44.697Z,95.48
2018-02-17T00:14:12.314Z,95.60
2018-02-17T00:16:39.914Z,95.64
2018-02-17T00:19:09.200Z,95.67
2018-02-17T00:21:37.116Z,95.77
2018-02-17T00:24:04.737Z,95.87
2018-02-17T00:26:32.466Z,95.94
2018-02-17T00:29:00.075Z,96.01
2018-02-17T00:31:28.093Z,96.13
2018-02-17T00:33:56.187Z,96.23
2018-02-17T00:36:23.845Z,96.36
2018-02-17T00:38:51.526Z,96.41
2018-02-17T00:41:19.115Z,96.48
2018-02-17T00:43:46.731Z,96.51
2018-02-17T00:46:14.352Z,96.46
2018-02-17T00:48:42.034Z,96.36
2018-02-17T00:51:09.688Z,96.35
2018-02-17T00:53:37.470Z,96.39
2018-02-17T00:56:05.278Z,96.42
2018-02-17T00:58:33.280Z,96.35
2018-02-17T01:01:00.939Z,96.30
2018-02-17T01:03:29.014Z,96.37
2018-02-17T01:05:56.608Z,96.40
2018-02-17T01:08:24.238Z,96.42
2018-02-17T01:10:52.306Z,96.33
2018-02-17T01:13:19.933Z,95.71
2018-02-17T01:15:47.540Z,95.26
2018-02-17T01:18:15.115Z,95.07
2018-02-17T01:20:42.730Z,95.28
2018-02-17T01:23:10.478Z,95.43
2018-02-17T01:25:38.113Z,95.68
2018-02-17T01:28:05.779Z,96.04
2018-02-17T01:30:33.432Z,96.20
2018-02-17T01:33:01.213Z,96.22
2018-02-17T01:35:29.217Z,95.58
2018-02-17T01:37:57.062Z,95.16
2018-02-17T01:40:24.740Z,94.86
2018-02-17T01:42:52.337Z,94.50
2018-02-17T01:45:20.028Z,95.02
2018-02-17T01:47:47.623Z,95.20
2018-02-17T01:50:27.184Z,94.68
2018-02-17T01:52:54.846Z,95.04
2018-02-17T01:55:23.878Z,95.10
2018-02-17T01:57:51.602Z,95.02
2018-02-17T02:00:19.306Z,95.03
2018-02-17T02:02:46.950Z,95.03
2018-02-17T02:05:15.136Z,95.33
2018-02-17T02:07:42.729Z,95.38
2018-02-17T02:10:10.318Z,95.26
2018-02-17T02:12:37.949Z,95.30
2018-02-17T02:15:06.471Z,95.29
2018-02-17T02:17:34.115Z,95.50
2018-02-17T02:20:01.828Z,95.48
2018-02-17T02:22:29.519Z,95.50
2018-02-17T02:24:57.118Z,95.35
2018-02-17T02:27:24.747Z,95.46
2018-02-17T02:29:52.344Z,95.34
2018-02-17T02:32:19.933Z,95.38
2018-02-17T02:34:47.587Z,95.16
2018-02-17T02:37:15.372Z,94.59
2018-02-17T02:39:43.197Z,94.50
2018-02-17T02:42:10.917Z,94.46
2018-02-17T02:44:38.751Z,94.63
2018-02-17T02:47:06.581Z,94.66
2018-02-17T02:49:34.194Z,94.69
2018-02-17T02:52:01.775Z,94.65
2018-02-17T02:54:29.368Z,94.80
2018-02-17T02:56:56.947Z,94.80
2018-02-17T02:59:24.651Z,94.99
2018-02-17T03:01:52.235Z,95.50
2018-02-17T03:04:19.935Z,95.43
2018-02-17T03:06:47.602Z,95.50
2018-02-17T03:09:15.344Z,95.55
2018-02-17T03:11:43.398Z,95.44
2018-02-17T03:14:11.378Z,95.54
2018-02-17T03:16:39.775Z,95.68
2018-02-17T03:19:07.397Z,95.97
2018-02-17T03:21:35.058Z,95.68
2018-02-17T03:24:03.799Z,95.61
2018-02-17T03:26:34.137Z,95.71
2018-02-17T03:29:01.753Z,95.81
2018-02-17T03:31:29.523Z,95.85
2018-02-17T03:33:57.144Z,95.85
2018-02-17T03:36:24.764Z,95.83
2018-02-17T03:38:52.366Z,95.70
2018-02-17T03:41:20.069Z,95.83
2018-02-17T03:43:47.674Z,95.62
2018-02-17T03:46:15.462Z,95.85
2018-02-17T03:48:43.060Z,96.17
2018-02-17T03:53:43.352Z,96.46
2018-02-17T03:56:10.951Z,96.41
2018-02-17T03:58:39.032Z,96.37
2018-02-17T04:01:06.664Z,96.47
2018-02-17T04:03:34.307Z,95.69
2018-02-17T04:06:01.965Z,94.74
2018-02-17T04:08:29.605Z,94.81
2018-02-17T04:10:57.210Z,95.12
2018-02-17T04:13:25.619Z,95.52
2018-02-17T04:15:53.229Z,95.77
2018-02-17T04:18:20.870Z,95.91
2018-02-17T04:20:48.483Z,96.00
2018-02-17T04:23:16.089Z,96.16
2018-02-17T04:25:43.679Z,96.27
2018-02-17T04:28:11.318Z,96.18
2018-02-17T04:30:38.987Z,96.18
2018-02-17T04:33:07.276Z,96.18
2018-02-17T04:35:34.982Z,96.26
2018-02-17T04:38:02.627Z,96.47
2018-02-17T04:40:36.504Z,96.33
2018-02-17T04:46:22.915Z,96.25
2018-02-17T04:48:53.943Z,96.32
2018-02-17T04:54:34.677Z,95.47
2018-02-17T04:57:18.289Z,95.62
2018-02-17T04:59:49.782Z,95.64
2018-02-17T05:02:19.129Z,95.58
2018-02-17T05:07:53.179Z,94.83
2018-02-17T05:10:20.922Z,94.21
2018-02-17T05:12:48.513Z,94.20
2018-02-17T05:15:16.641Z,94.50
2018-02-17T05:17:49.699Z,94.67
2018-02-17T05:20:29.102Z,94.69
2018-02-17T05:23:01.318Z,94.55
2018-02-17T05:28:43.030Z,94.79
2018-02-17T05:31:14.450Z,93.93
2018-02-17T05:33:47.485Z,93.14
2018-02-17T05:39:17.015Z,92.70
2018-02-17T05:41:50.110Z,92.56
2018-02-17T05:47:29.016Z,92.75
2018-02-17T05:49:56.695Z,92.81
2018-02-17T05:52:25.775Z,92.97
2018-02-17T05:54:53.399Z,93.20
2018-02-17T05:57:22.847Z,93.58
2018-02-17T05:59:50.540Z,93.74
2018-02-17T06:02:18.131Z,93.98
2018-02-17T06:04:45.768Z,93.95
2018-02-17T06:07:13.529Z,93.69
2018-02-17T06:09:41.123Z,93.56
2018-02-17T06:12:08.850Z,92.70
2018-02-17T06:14:36.748Z,92.84
2018-02-17T06:17:04.477Z,92.43
2018-02-17T06:19:32.217Z,92.62
2018-02-17T06:21:59.808Z,92.79
2018-02-17T06:24:27.400Z,92.92
2018-02-17T06:26:55.006Z,93.20
2018-02-17T06:29:22.569Z,93.38
2018-02-17T06:31:50.141Z,93.40
2018-02-17T06:34:17.761Z,93.32
2018-02-17T06:36:45.345Z,92.92
2018-02-17T06:39:13.173Z,92.83
2018-02-17T06:41:40.845Z,92.63
2018-02-17T06:44:08.422Z,91.98
2018-02-17T06:46:38.696Z,91.90
2018-02-17T06:49:06.709Z,91.82
2018-02-17T06:51:34.370Z,91.79
2018-02-17T06:54:02.113Z,91.64
2018-02-17T06:56:29.706Z,91.54
2018-02-17T06:58:57.289Z,91.75
2018-02-17T07:01:24.903Z,91.98
2018-02-17T07:03:57.286Z,91.77
2018-02-17T07:06:24.913Z,92.04
2018-02-17T07:08:53.725Z,92.04
2018-02-17T07:11:21.334Z,91.74
2018-02-17T07:13:49.352Z,91.97
2018-02-17T07:16:16.954Z,92.35
2018-02-17T07:18:44.545Z,92.50
2018-02-17T07:21:12.157Z,91.74
2018-02-17T07:23:40.586Z,91.77
2018-02-17T07:26:08.299Z,91.58
2018-02-17T07:28:35.910Z,91.47
2018-02-17T07:31:03.506Z,91.04
2018-02-17T07:33:32.728Z,91.04
2018-02-17T07:36:00.442Z,90.74
2018-02-17T07:38:28.053Z,90.99
2018-02-17T07:40:55.766Z,90.39
2018-02-17T07:43:23.414Z,90.85
2018-02-17T07:45:52.316Z,91.22
2018-02-17T07:48:19.914Z,91.25
2018-02-17T07:50:48.383Z,91.06
2018-02-17T07:53:15.957Z,91.06
2018-02-17T07:55:43.821Z,90.81
2018-02-17T07:58:11.800Z,90.87
2018-02-17T08:00:39.433Z,90.99
2018-02-17T08:03:07.333Z,90.32
2018-02-17T08:05:35.373Z,90.40
2018-02-17T08:08:03.025Z,90.53
2018-02-17T08:10:31.008Z,90.66
2018-02-17T08:12:58.649Z,91.16
2018-02-17T08:15:26.288Z,90.94
2018-02-17T08:17:53.951Z,90.65
2018-02-17T08:20:21.597Z,89.90
2018-02-17T08:22:49.174Z,89.24
2018-02-17T08:25:16.811Z,89.15
2018-02-17T08:27:44.444Z,89.11
2018-02-17T08:30:12.278Z,89.27
2018-02-17T08:32:39.932Z,89.03
2018-02-17T08:35:07.903Z,89.05
2018-02-17T08:37:36.010Z,89.59
2018-02-17T08:40:03.688Z,88.92
2018-02-17T08:42:31.325Z,88.32
2018-02-17T08:44:58.923Z,88.92
2018-02-17T08:47:27.497Z,88.87
2018-02-17T08:49:55.141Z,88.68
2018-02-17T08:52:23.107Z,89.16
2018-02-17T08:54:50.694Z,89.47
2018-02-17T08:57:18.357Z,89.30
2018-02-17T08:59:46.006Z,88.83
2018-02-17T09:02:13.627Z,88.16
2018-02-17T09:04:41.261Z,87.83
2018-02-17T09:07:10.879Z,87.43
2018-02-17T09:09:38.628Z,87.49
2018-02-17T09:12:06.369Z,87.77
2018-02-17T09:14:34.013Z,88.38
2018-02-17T09:17:01.655Z,88.42
2018-02-17T09:19:29.256Z,86.77
2018-02-17T09:21:56.913Z,87.12
2018-02-17T09:24:24.517Z,87.30
2018-02-17T09:26:52.141Z,87.01
2018-02-17T09:29:19.728Z,85.89
2018-02-17T09:31:47.295Z,85.59
2018-02-17T09:34:14.911Z,86.15
2018-02-17T09:36:42.588Z,86.38
2018-02-17T09:39:11.070Z,86.68
2018-02-17T09:41:38.891Z,87.13
2018-02-17T09:44:06.507Z,86.68
2018-02-17T09:46:34.125Z,86.83
2018-02-17T09:49:01.744Z,86.61
2018-02-17T09:51:29.984Z,86.56
2018-02-17T09:53:57.754Z,86.26
2018-02-17T09:56:25.399Z,86.49
2018-02-17T09:58:53.053Z,87.30
2018-02-17T10:01:20.707Z,87.62
2018-02-17T10:03:48.279Z,87.80
2018-02-17T10:06:16.054Z,88.35
2018-02-17T10:08:43.628Z,88.27
2018-02-17T10:11:11.830Z,88.46
2018-02-17T10:13:39.502Z,87.66
2018-02-17T10:16:07.155Z,87.11
2018-02-17T10:18:34.746Z,86.95
2018-02-17T10:21:02.557Z,86.95
2018-02-17T10:23:30.328Z,87.46
2018-02-17T10:25:58.143Z,87.82
2018-02-17T10:28:25.794Z,88.47
2018-02-17T10:30:53.389Z,88.47
2018-02-17T10:33:21.435Z,88.22
2018-02-17T10:35:49.114Z,88.06
2018-02-17T10:38:16.789Z,87.58
2018-02-17T10:40:44.378Z,87.79
2018-02-17T10:43:12.251Z,87.84
2018-02-17T10:45:39.889Z,88.13
2018-02-17T10:48:07.505Z,88.28
2018-02-17T10:50:35.118Z,88.00
2018-02-17T10:53:02.751Z,88.18
2018-02-17T10:55:36.124Z,88.05
2018-02-17T10:58:03.762Z,88.35
2018-02-17T11:00:32.030Z,87.53
2018-02-17T11:03:04.879Z,87.01
2018-02-17T11:05:37.335Z,87.33
2018-02-17T11:08:10.339Z,86.40
2018-02-17T11:10:49.079Z,86.37
2018-02-17T11:13:23.142Z,85.99
2018-02-17T11:15:51.265Z,86.56
2018-02-17T11:18:20.516Z,87.02
2018-02-17T11:20:48.599Z,86.54
2018-02-17T11:23:17.268Z,86.13
2018-02-17T11:25:44.856Z,85.63
2018-02-17T11:28:16.284Z,85.55
2018-02-17T11:30:43.883Z,85.37
2018-02-17T11:33:13.052Z,84.34
2018-02-17T11:35:42.032Z,83.93
2018-02-17T11:38:11.581Z,84.09
2018-02-17T11:40:39.694Z,83.29
2018-02-17T11:43:09.426Z,83.36
2018-02-17T11:45:37.150Z,83.20
2018-02-17T11:48:06.031Z,83.92
2018-02-17T11:50:33.708Z,83.96
2018-02-17T11:53:03.409Z,83.92
2018-02-17T11:55:31.132Z,83.80
2018-02-17T11:57:59.080Z,84.51
2018-02-17T12:00:26.868Z,84.77
2018-02-17T12:02:54.515Z,84.29
2018-02-17T12:05:30.120Z,84.74
2018-02-17T12:08:02.217Z,85.57
2018-02-17T12:10:36.133Z,85.75
2018-02-17T12:13:09.392Z,85.57
2018-02-17T12:15:44.627Z,85.24
2018-02-17T12:18:12.288Z,84.72
2018-02-17T12:20:39.852Z,84.44
2018-02-17T12:23:07.811Z,84.97
2018-02-17T12:25:35.489Z,85.17
2018-02-17T12:28:03.913Z,84.88
2018-02-17T12:30:31.845Z,84.31
2018-02-17T12:32:59.469Z,84.30
2018-02-17T12:35:27.409Z,84.64
2018-02-17T12:37:55.065Z,84.77
2018-02-17T12:40:22.973Z,84.43
2018-02-17T12:42:50.669Z,84.69
2018-02-17T12:45:18.283Z,85.34
2018-02-17T12:47:45.876Z,85.57
2018-02-17T12:50:13.639Z,85.87
2018-02-17T12:52:41.232Z,85.93
2018-02-17T12:55:09.614Z,85.90
2018-02-17T12:57:37.249Z,86.79
2018-02-17T13:00:04.927Z,86.28
2018-02-17T13:02:32.528Z,86.70
2018-02-17T13:05:00.442Z,86.67
2018-02-17T13:07:35.208Z,87.27
2018-02-17T13:10:07.807Z,87.19
2018-02-17T13:12:41.080Z,87.14
2018-02-17T13:15:27.115Z,86.00
2018-02-17T13:17:54.755Z,85.69
2018-02-17T13:20:23.343Z,85.66
2018-02-17T13:22:50.920Z,85.35
2018-02-17T13:25:18.587Z,85.00
2018-02-17T13:27:46.184Z,85.97
2018-02-17T13:30:13.784Z,86.73
2018-02-17T13:32:41.550Z,86.80
2018-02-17T13:35:09.578Z,87.21
2018-02-17T13:37:37.235Z,87.53
2018-02-17T13:40:04.874Z,88.26
2018-02-17T13:42:33.558Z,88.53
2018-02-17T13:45:02.144Z,88.27
2018-02-17T13:47:29.759Z,88.54
2018-02-17T13:49:57.383Z,88.27
2018-02-17T13:52:25.060Z,88.35
2018-02-17T13:54:53.189Z,87.77
2018-02-17T13:57:21.001Z,88.11
2018-02-17T13:59:48.645Z,87.42
2018-02-17T14:02:16.266Z,87.04
2018-02-17T14:04:43.876Z,87.49
2018-02-17T14:07:12.853Z,87.83
2018-02-17T14:09:40.775Z,87.80
2018-02-17T14:12:08.354Z,87.86
2018-02-17T14:14:36.054Z,87.94
2018-02-17T14:17:08.098Z,88.20
2018-02-17T14:19:38.456Z,87.86
2018-02-17T14:22:06.025Z,87.66
2018-02-17T14:24:34.503Z,87.86
2018-02-17T14:27:02.182Z,87.92
2018-02-17T14:29:29.842Z,87.68
2018-02-17T14:31:57.447Z,88.01
2018-02-17T14:34:25.071Z,87.85
2018-02-17T14:36:54.438Z,87.51
2018-02-17T14:39:24.471Z,87.62
2018-02-17T14:41:52.137Z,87.61
2018-02-17T14:44:19.986Z,87.69
2018-02-17T14:46:54.413Z,87.97
2018-02-17T14:49:23.469Z,88.10
2018-02-17T14:51:51.087Z,88.06
2018-02-17T14:54:19.207Z,88.38
2018-02-17T14:56:47.111Z,88.55
2018-02-17T14:59:14.990Z,89.20
2018-02-17T15:01:43.512Z,89.47
2018-02-17T15:04:11.649Z,89.49
2018-02-17T15:06:39.242Z,89.40
2018-02-17T15:09:06.953Z,89.47
2018-02-17T15:11:35.633Z,89.53
2018-02-17T15:14:03.648Z,89.25
2018-02-17T15:16:39.107Z,89.45
2018-02-17T15:19:13.074Z,89.06
2018-02-17T15:21:47.250Z,89.44
2018-02-17T15:24:18.377Z,89.59
2018-02-17T15:26:52.559Z,90.07
2018-02-17T15:29:23.847Z,89.87
2018-02-17T15:31:51.485Z,89.72
2018-02-17T15:34:19.128Z,89.69
2018-02-17T15:36:46.714Z,89.49
2018-02-17T15:39:14.647Z,89.48
2018-02-17T15:41:46.702Z,89.64
2018-02-17T15:44:21.690Z,90.12
2018-02-17T15:46:49.293Z,89.49
2018-02-17T15:49:17.307Z,89.33
2018-02-17T15:51:45.368Z,89.89
2018-02-17T15:54:13.539Z,89.88
2018-02-17T15:56:46.150Z,89.99
2018-02-17T15:59:14.465Z,90.42
2018-02-17T16:01:42.107Z,89.70
2018-02-17T16:04:09.681Z,88.75
2018-02-17T16:06:37.280Z,88.92
2018-02-17T16:09:05.370Z,88.92
2018-02-17T16:11:33.080Z,89.29
2018-02-17T16:14:03.778Z,89.36
2018-02-17T16:16:31.324Z,89.37
2018-02-17T16:18:58.920Z,89.54
2018-02-17T16:21:26.502Z,89.46
2018-02-17T16:23:58.498Z,88.88
2018-02-17T16:26:31.280Z,86.82
2018-02-17T16:29:04.813Z,87.10
2018-02-17T16:31:39.628Z,87.28
2018-02-17T16:34:08.697Z,86.28
2018-02-17T16:36:43.157Z,85.17
2018-02-17T16:39:17.401Z,85.80
2018-02-17T16:41:51.469Z,83.92
2018-02-17T16:44:26.685Z,84.68
2018-02-17T16:46:54.276Z,84.46
2018-02-17T16:49:21.926Z,84.15
2018-02-17T16:51:49.559Z,84.19
2018-02-17T16:54:17.179Z,84.77
2018-02-17T16:56:44.787Z,84.54
2018-02-17T16:59:12.416Z,84.53
2018-02-17T17:01:39.988Z,84.28
2018-02-17T17:04:07.618Z,83.97
2018-02-17T17:06:35.210Z,84.43
2018-02-17T17:09:04.995Z,84.10
2018-02-17T17:11:32.617Z,84.00
2018-02-17T17:14:00.231Z,84.37
2018-02-17T17:16:28.130Z,84.70
2018-02-17T17:18:55.693Z,85.08
2018-02-17T17:21:23.655Z,84.97
2018-02-17T17:23:51.309Z,84.69
2018-02-17T17:26:18.939Z,85.65
2018-02-17T17:28:46.580Z,86.00
2018-02-17T17:31:14.161Z,85.40
2018-02-17T17:33:41.741Z,85.42
2018-02-17T17:36:09.477Z,84.99
2018-02-17T17:38:37.045Z,85.20
2018-02-17T17:41:04.858Z,84.97
2018-02-17T17:43:32.466Z,85.42
2018-02-17T17:46:00.414Z,85.39
2018-02-17T17:48:27.999Z,85.68
2018-02-17T17:50:55.577Z,85.75
2018-02-17T17:53:23.546Z,85.95
2018-02-17T17:55:51.112Z,85.98
2018-02-17T17:58:21.091Z,86.07
2018-02-17T18:00:48.654Z,85.81
2018-02-17T18:03:16.262Z,85.39
2018-02-17T18:05:43.909Z,85.55
2018-02-17T18:08:11.518Z,86.42
2018-02-17T18:10:39.129Z,86.94
2018-02-17T18:13:06.862Z,87.40
2018-02-17T18:15:34.603Z,87.07
2018-02-17T18:18:02.220Z,87.26
2018-02-17T18:20:30.513Z,86.89
2018-02-17T18:22:58.113Z,87.52
2018-02-17T18:25:26.098Z,87.80
2018-02-17T18:27:54.033Z,88.39
2018-02-17T18:30:21.719Z,88.63
2018-02-17T18:32:49.293Z,88.92
2018-02-17T18:35:17.118Z,88.22
2018-02-17T18:37:44.723Z,87.51
2018-02-17T18:40:12.285Z,87.69
2018-02-17T18:42:39.920Z,88.33
2018-02-17T18:45:07.692Z,89.13
2018-02-17T18:47:36.368Z,89.79
2018-02-17T18:50:03.941Z,90.02
2018-02-17T18:52:31.489Z,90.21
2018-02-17T18:54:59.066Z,90.36
2018-02-17T18:57:26.694Z,90.66
2018-02-17T18:59:59.500Z,90.76
2018-02-17T19:02:27.268Z,91.10
2018-02-17T19:05:00.393Z,91.62
2018-02-17T19:07:36.485Z,91.75
2018-02-17T19:10:14.027Z,91.87
2018-02-17T19:12:49.168Z,91.90
2018-02-17T19:15:22.963Z,92.26
2018-02-17T19:17:57.068Z,92.26
2018-02-17T19:20:29.766Z,92.32
2018-02-17T19:23:00.798Z,92.68
2018-02-17T19:25:33.451Z,92.45
2018-02-17T19:28:06.112Z,92.58
2018-02-17T19:30:38.475Z,92.34
2018-02-17T19:33:13.568Z,92.25
2018-02-17T19:35:42.380Z,92.15
2018-02-17T19:38:10.053Z,92.05
2018-02-17T19:40:37.675Z,92.19
2018-02-17T19:43:05.430Z,92.28
2018-02-17T19:45:35.726Z,92.46
2018-02-17T19:48:04.352Z,92.72
2018-02-17T19:50:32.699Z,92.90
2018-02-17T19:53:00.982Z,92.94
2018-02-17T19:55:29.733Z,92.86
2018-02-17T19:57:59.846Z,92.89
2018-02-17T20:00:27.529Z,92.77
2018-02-17T20:02:55.100Z,92.77
2018-02-17T20:05:23.022Z,92.57
2018-02-17T20:07:52.653Z,92.44
2018-02-17T20:10:20.816Z,92.20
2018-02-17T20:12:50.507Z,92.22
2018-02-17T20:15:19.569Z,92.18
2018-02-17T20:17:47.220Z,92.08
2018-02-17T20:20:19.511Z,91.83
2018-02-17T20:22:47.072Z,90.15
2018-02-17T20:25:15.562Z,90.54
2018-02-17T20:27:43.624Z,90.48
2018-02-17T20:30:11.459Z,90.45
2018-02-17T20:32:39.116Z,90.72
2018-02-17T20:35:06.891Z,90.86
2018-02-17T20:37:34.505Z,90.83
2018-02-17T20:40:02.489Z,89.68
2018-02-17T20:42:30.085Z,89.17
2018-02-17T20:44:57.688Z,89.47
2018-02-17T20:47:25.524Z,89.35
2018-02-17T20:49:53.307Z,88.91
2018-02-17T20:52:20.883Z,88.91
2018-02-17T20:54:48.478Z,88.55
2018-02-17T20:57:16.352Z,87.47
2018-02-17T20:59:43.957Z,87.39
2018-02-17T21:02:11.905Z,86.71
2018-02-17T21:04:39.868Z,85.56
2018-02-17T21:07:07.846Z,86.41
2018-02-17T21:09:36.185Z,86.48
2018-02-17T21:12:03.850Z,86.53
2018-02-17T21:14:31.449Z,86.40
2018-02-17T21:16:59.045Z,87.09
2018-02-17T21:19:26.895Z,86.64
2018-02-17T21:21:54.476Z,86.70
2018-02-17T21:24:22.599Z,86.57
2018-02-17T21:26:50.247Z,86.47
2018-02-17T21:29:17.929Z,86.06
2018-02-17T21:31:45.488Z,86.63
2018-02-17T21:34:13.494Z,86.92
2018-02-17T21:36:41.083Z,87.48
2018-02-17T21:39:08.961Z,87.89
2018-02-17T21:41:36.592Z,87.92
2018-02-17T21:44:04.218Z,88.18
2018-02-17T21:46:31.848Z,88.35
2018-02-17T21:48:59.497Z,88.88
2018-02-17T21:51:31.372Z,89.18
2018-02-17T21:53:59.000Z,89.84
2018-02-17T21:56:26.641Z,89.54
2018-02-17T21:58:54.291Z,89.92
2018-02-17T22:01:21.921Z,90.38
2018-02-17T22:03:49.562Z,90.58
2018-02-17T22:06:17.185Z,90.99
2018-02-17T22:08:44.759Z,90.82
2018-02-17T22:11:12.669Z,91.09
2018-02-17T22:13:40.288Z,91.08
2018-02-17T22:16:07.928Z,91.19
2018-02-17T22:18:35.558Z,91.26
2018-02-17T22:21:03.243Z,91.34
2018-02-17T22:23:31.249Z,90.87
2018-02-17T22:25:58.828Z,91.16
2018-02-17T22:28:26.457Z,91.13
2018-02-17T22:30:55.408Z,90.90
2018-02-17T22:33:23.149Z,90.48
2018-02-17T22:35:50.964Z,89.93
2018-02-17T22:38:18.537Z,90.24
2018-02-17T22:40:46.123Z,90.23
2018-02-17T22:43:13.972Z,90.16
2018-02-17T22:45:41.617Z,90.31
2018-02-17T22:48:09.244Z,90.67
2018-02-17T22:50:37.287Z,90.22
2018-02-17T22:53:04.948Z,89.89
2018-02-17T22:55:32.685Z,89.22
2018-02-17T22:58:00.285Z,89.70
2018-02-17T23:00:31.621Z,89.79
2018-02-17T23:02:59.257Z,90.22
2018-02-17T23:05:27.374Z,90.58
2018-02-17T23:07:55.008Z,90.88
2018-02-17T23:10:22.682Z,90.77
2018-02-17T23:12:50.357Z,90.67
2018-02-17T23:15:18.858Z,90.70
2018-02-17T23:17:46.552Z,90.85
2018-02-17T23:20:15.892Z,90.73
2018-02-17T23:22:43.689Z,90.64
2018-02-17T23:25:11.715Z,90.96
2018-02-17T23:27:39.561Z,91.06
2018-02-17T23:30:07.117Z,91.13
2018-02-17T23:32:35.920Z,91.36
2018-02-17T23:35:06.155Z,91.42
2018-02-17T23:37:33.800Z,91.61
2018-02-17T23:40:01.410Z,91.55
2018-02-17T23:42:30.545Z,91.59
2018-02-17T23:44:59.854Z,91.50
2018-02-17T23:47:27.519Z,91.72
2018-02-17T23:49:55.122Z,92.00
2018-02-17T23:52:22.687Z,92.14
2018-02-17T23:54:50.461Z,92.31
2018-02-17T23:57:18.127Z,92.31
2018-02-17T23:59:45.706Z,92.55
